| time (UTC) | temp C | wind direction | speed KPH | gust KPH | rain 1hr cm | rain 24hr cm | rain mn cm | humidity % | barometer mb |
| 20260510071550 | 22 | 163 | 0.0 | 0.0 | 0.00 | 0.00 | 0.00 | 56 | 1010.3 |
| 20260510070051 | 22 | 165 | 0.0 | 0.0 | 0.00 | 0.00 | 0.00 | 56 | 1010.2 |
| 20260510064547 | 22 | 165 | 0.0 | 0.0 | 0.00 | 0.00 | 0.00 | 58 | 1010.0 |
| 20260510063043 | 22 | 179 | 0.0 | 0.0 | 0.00 | 0.00 | 0.00 | 60 | 1010.1 |
| 20260510061541 | 23 | 179 | 0.0 | 0.0 | 0.00 | 0.00 | 0.00 | 62 | 1010.0 |
| 20260510060045 | 23 | 178 | 0.0 | 1.6 | 0.00 | 0.00 | 0.00 | 63 | 1009.9 |
| 20260510054538 | 23 | 186 | 0.0 | 0.0 | 0.00 | 0.00 | 0.00 | 63 | 1009.9 |
| 20260510053037 | 23 | 186 | 0.0 | 0.0 | 0.00 | 0.00 | 0.00 | 63 | 1009.9 |
| 20260510051534 | 23 | 186 | 0.0 | 0.0 | 0.00 | 0.00 | 0.00 | 63 | 1009.9 |
| 20260510050037 | 24 | 186 | 0.0 | 0.0 | 0.00 | 0.00 | 0.00 | 64 | 1009.8 |
| 20260510044526 | 24 | 186 | 0.0 | 0.0 | 0.00 | 0.00 | 0.00 | 64 | 1009.8 |
| 20260510043023 | 24 | 186 | 0.0 | 4.8 | 0.00 | 0.00 | 0.00 | 64 | 1009.7 |
| 20260510041522 | 25 | 188 | 0.0 | 0.0 | 0.00 | 0.00 | 0.00 | 64 | 1009.5 |
| 20260510040014 | 25 | 188 | 0.0 | 0.0 | 0.00 | 0.00 | 0.00 | 65 | 1009.4 |
| 20260510034509 | 25 | 188 | 0.0 | 0.0 | 0.00 | 0.00 | 0.00 | 66 | 1009.3 |
| 20260510033004 | 26 | 188 | 0.0 | 0.0 | 0.00 | 0.00 | 0.00 | 66 | 1009.2 |
| 20260510031605 | 26 | 188 | 0.0 | 0.0 | 0.00 | 0.00 | 0.00 | 65 | 1009.1 |
| 20260510030156 | 26 | 188 | 0.0 | 0.0 | 0.00 | 0.00 | 0.00 | 65 | 1008.8 |
| 20260510024551 | 26 | 188 | 1.6 | 9.7 | 0.00 | 0.00 | 0.00 | 65 | 1008.5 |
| 20260510023047 | 27 | 182 | 0.0 | 6.4 | 0.00 | 0.00 | 0.00 | 66 | 1008.4 |
| 20260510021635 | 27 | 182 | 1.6 | 6.4 | 0.00 | 0.00 | 0.00 | 66 | 1008.4 |
| 20260510020037 | 27 | 159 | 0.0 | 4.8 | 0.00 | 0.00 | 0.00 | 67 | 1008.2 |
| 20260510014546 | 27 | 190 | 0.0 | 6.4 | 0.00 | 0.00 | 0.00 | 67 | 1008.0 |
| 20260510013032 | 28 | 197 | 0.0 | 11.3 | 0.00 | 0.00 | 0.00 | 67 | 1007.9 |
| 20260510011525 | 28 | 126 | 0.0 | 1.6 | 0.00 | 0.00 | 0.00 | 66 | 1007.6 |
| 20260510010032 | 28 | 122 | 0.0 | 0.0 | 0.00 | 0.00 | 0.00 | 65 | 1007.6 |
| 20260510004522 | 28 | 120 | 0.0 | 3.2 | 0.00 | 0.00 | 0.00 | 65 | 1007.6 |
| 20260510003023 | 28 | 98 | 0.0 | 6.4 | 0.00 | 0.00 | 0.00 | 64 | 1007.4 |
| 20260510001519 | 29 | 179 | 0.0 | 6.4 | 0.00 | 0.00 | 0.00 | 63 | 1007.3 |
| 20260510000018 | 29 | 178 | 4.8 | 12.9 | 0.00 | 0.00 | 0.00 | 62 | 1007.2 |
| 20260509234521 | 30 | 185 | 1.6 | 8.0 | 0.00 | 0.00 | 0.00 | 61 | 1007.0 |
| 20260509233018 | 30 | 164 | 0.0 | 4.8 | 0.00 | 0.00 | 0.00 | 61 | 1007.0 |
| 20260509231518 | 30 | 169 | 3.2 | 6.4 | 0.00 | 0.00 | 0.00 | 60 | 1007.0 |
| 20260509230025 | 30 | 109 | 1.6 | 12.9 | 0.00 | 0.00 | 0.00 | 57 | 1007.0 |
| 20260509224517 | 30 | 115 | 0.0 | 6.4 | 0.00 | 0.00 | 0.00 | 53 | 1006.9 |
| 20260509223009 | 30 | 180 | 3.2 | 14.5 | 0.00 | 0.00 | 0.00 | 44 | 1006.9 |
| 20260509221505 | 30 | 110 | 1.6 | 6.4 | 0.00 | 0.00 | 0.00 | 47 | 1006.8 |
| 20260509220100 | 30 | 216 | 0.0 | 3.2 | 0.00 | 0.00 | 0.00 | 50 | 1006.5 |
| 20260509214556 | 29 | 171 | 1.6 | 6.4 | 0.00 | 0.00 | 0.00 | 52 | 1006.8 |
| 20260509213105 | 28 | 198 | 1.6 | 12.9 | 0.00 | 0.00 | 0.00 | 55 | 1006.9 |
| 20260509211549 | 27 | 169 | 6.4 | 17.7 | 0.00 | 0.00 | 0.00 | 55 | 1007.6 |
| 20260509210046 | 25 | 217 | 8.0 | 27.4 | 0.00 | 0.00 | 0.00 | 55 | 1007.7 |
| 20260509204539 | 25 | 185 | 17.7 | 35.4 | 0.00 | 0.00 | 0.00 | 58 | 1007.7 |
| 20260509203034 | 28 | 56 | 6.4 | 25.7 | 0.00 | 0.00 | 0.00 | 52 | 1007.9 |
| 20260509201528 | 31 | 103 | 8.0 | 22.5 | 0.00 | 0.00 | 0.00 | 58 | 1008.0 |
| 20260509200024 | 32 | 40 | 0.0 | 8.0 | 0.00 | 0.00 | 0.00 | 52 | 1007.9 |
| 20260509194531 | 32 | 265 | 1.6 | 6.4 | 0.00 | 0.00 | 0.00 | 53 | 1007.9 |
| 20260509193022 | 32 | 208 | 0.0 | 4.8 | 0.00 | 0.00 | 0.00 | 54 | 1008.0 |
| 20260509191514 | 32 | 240 | 0.0 | 6.4 | 0.00 | 0.00 | 0.00 | 56 | 1008.2 |
| 20260509190008 | 31 | 219 | 0.0 | 8.0 | 0.00 | 0.00 | 0.00 | 57 | 1008.4 |
| 20260509184502 | 31 | 214 | 0.0 | 6.4 | 0.00 | 0.00 | 0.00 | 58 | 1008.7 |
| 20260509183100 | 31 | 213 | 0.0 | 6.4 | 0.00 | 0.00 | 0.00 | 58 | 1009.1 |
| 20260509181601 | 31 | 178 | 0.0 | 6.4 | 0.00 | 0.00 | 0.00 | 62 | 1009.3 |
| 20260509180057 | 31 | 204 | 0.0 | 4.8 | 0.00 | 0.00 | 0.00 | 62 | 1009.4 |
| 20260509174547 | 30 | 184 | 0.0 | 8.0 | 0.00 | 0.00 | 0.00 | 64 | 1009.6 |
| 20260509173053 | 30 | 193 | 0.0 | 9.7 | 0.00 | 0.00 | 0.00 | 65 | 1010.0 |
| 20260509171539 | 29 | 194 | 0.0 | 6.4 | 0.00 | 0.00 | 0.00 | 65 | 1010.0 |
| 20260509170031 | 28 | 202 | 0.0 | 6.4 | 0.00 | 0.00 | 0.00 | 65 | 1010.2 |
| 20260509164526 | 28 | 97 | 0.0 | 6.4 | 0.00 | 0.00 | 0.00 | 64 | 1010.3 |
| 20260509163022 | 27 | 213 | 0.0 | 4.8 | 0.00 | 0.00 | 0.00 | 58 | 1010.3 |
| 20260509161519 | 27 | 213 | 0.0 | 6.4 | 0.00 | 0.00 | 0.00 | 40 | 1010.4 |
| 20260509160015 | 26 | 238 | 0.0 | 6.4 | 0.00 | 0.00 | 0.00 | 28 | 1010.3 |
| 20260509154509 | 25 | 169 | 0.0 | 8.0 | 0.00 | 0.00 | 0.00 | 1 | 1010.4 |
| 20260509153011 | 25 | 193 | 0.0 | 4.8 | 0.00 | 0.00 | 0.00 | 1 | 1010.4 |
| 20260509151600 | 24 | 199 | 0.0 | 8.0 | 0.00 | 0.00 | 0.00 | 1 | 1010.4 |
| 20260509150055 | 23 | 200 | 0.0 | 6.4 | 0.00 | 0.00 | 0.00 | 1 | 1010.6 |
| 20260509144552 | 23 | 171 | 0.0 | 8.0 | 0.00 | 0.00 | 0.00 | 1 | 1010.3 |
| 20260509143047 | 22 | 199 | 0.0 | 6.4 | 0.00 | 0.00 | 0.00 | 1 | 1010.2 |
| 20260509141544 | 22 | 181 | 0.0 | 9.7 | 0.00 | 0.00 | 0.00 | 1 | 1010.0 |
| 20260509140052 | 22 | 183 | 1.6 | 6.4 | 0.00 | 0.00 | 0.00 | 1 | 1010.1 |
| 20260509134534 | 22 | 45 | 0.0 | 0.0 | 0.00 | 0.00 | 0.00 | 1 | 1010.3 |
| 20260509133038 | 22 | 45 | 0.0 | 0.0 | 0.00 | 0.00 | 0.00 | 1 | 1010.4 |
| 20260509131530 | 22 | 45 | 0.0 | 0.0 | 0.00 | 0.00 | 0.00 | 1 | 1010.4 |
| 20260509130025 | -17 | 0.0 | 0.0 | 0.00 | 0.00 | 0.00 | 1010.0 | ||
| 20260509124521 | -17 | 0.0 | 0.0 | 0.00 | 0.00 | 0.00 | 1009.6 | ||
| 20260509123017 | -17 | 0.0 | 0.0 | 0.00 | 0.00 | 0.00 | 1009.8 | ||
| 20260509121512 | -17 | 0.0 | 0.0 | 0.00 | 0.00 | 0.00 | 1010.0 | ||
| 20260509120008 | -17 | 0.0 | 0.0 | 0.00 | 0.00 | 0.00 | 1010.1 | ||
| 20260509114503 | -17 | 0.0 | 0.0 | 0.00 | 0.00 | 0.00 | 1010.2 | ||
| 20260509113100 | 22 | 44 | 0.0 | 0.0 | 0.00 | 0.00 | 0.00 | 1 | 1010.6 |
| 20260509111558 | 22 | 44 | 0.0 | 4.8 | 0.00 | 0.00 | 0.00 | 1 | 1010.7 |
| 20260509110051 | 22 | 45 | 0.0 | 4.8 | 0.00 | 0.00 | 0.00 | 1 | 1011.0 |
| 20260509104548 | 22 | 46 | 0.0 | 8.0 | 0.00 | 0.00 | 0.00 | 1 | 1011.0 |
| 20260509103047 | 22 | 105 | 0.0 | 0.0 | 0.00 | 0.00 | 0.00 | 1 | 1010.9 |
| 20260509101539 | 22 | 107 | 0.0 | 0.0 | 0.00 | 0.00 | 0.00 | 1 | 1010.4 |
| 20260509100032 | 22 | 107 | 0.0 | 0.0 | 0.00 | 0.00 | 0.00 | 1 | 1009.9 |
| 20260509094527 | 22 | 107 | 0.0 | 0.0 | 0.00 | 0.00 | 0.00 | 1 | 1009.6 |
| 20260509093023 | 22 | 107 | 0.0 | 0.0 | 0.00 | 0.00 | 0.00 | 1 | 1009.8 |
| 20260509091519 | 22 | 107 | 0.0 | 0.0 | 0.00 | 0.00 | 0.00 | 1 | 1009.6 |
| 20260509090023 | 22 | 107 | 0.0 | 0.0 | 0.00 | 0.00 | 0.00 | 1 | 1009.5 |
| 20260509084510 | 22 | 107 | 0.0 | 0.0 | 0.00 | 0.00 | 0.00 | 1 | 1009.7 |
| 20260509083007 | 22 | 105 | 0.0 | 0.0 | 0.00 | 0.00 | 0.00 | 1 | 1009.8 |
| 20260509081502 | 22 | 155 | 0.0 | 0.0 | 0.00 | 0.00 | 0.00 | 1 | 1010.1 |
| 20260509080059 | 22 | 160 | 0.0 | 0.0 | 0.00 | 0.00 | 0.00 | 1 | 1009.8 |
| 20260509074609 | 22 | 165 | 0.0 | 0.0 | 0.00 | 0.00 | 0.00 | 1 | 1009.6 |
| 20260509073103 | 22 | 171 | 0.0 | 0.0 | 0.00 | 0.00 | 0.00 | 1 | 1009.9 |